Time;durP1;ratioP1;P1;durP2;ratioP2;P2;SDS_P1;SDS_P2;PMS_P1;PMS_P2;Temp;Humidity;BMP_temperature;BMP_pressure;BME280_temperature;BME280_humidity;BME280_pressure;Samples;Min_cycle;Max_cycle;Signal;HPM_P1;HPM_P2
2022/03/25 07:18:59;;;;;;;26.68;9.90;;;;;;;22.38;24.13;101479.14;1747594;80;21023;-84
2022/03/25 07:21:29;;;;;;;21.25;8.55;;;;;;;22.17;23.65;101484.39;1742102;80;21133;-84
2022/03/25 07:24:02;;;;;;;16.93;7.83;;;;;;;22.68;23.07;101475.52;1661683;84;21364;-84
2022/03/25 07:26:46;;;;;;;;;;;;;;;;;;;;;
2022/03/25 07:29:04;;;;;;;24.55;9.33;;;;;;;22.97;23.04;101474.69;1508326;91;21724;-83
2022/03/25 07:31:32;;;;;;;17.98;8.73;;;;;;;23.43;22.37;101480.92;1517981;91;21065;-84
2022/03/25 07:34:02;;;;;;;20.75;8.95;;;;;;;23.21;22.65;101475.61;1536300;92;21136;-83
2022/03/25 07:36:35;;;;;;;22.62;9.50;;;;;;;23.52;22.08;101474.03;1521437;91;21176;-84
2022/03/25 07:39:09;;;;;;;16.55;8.53;;;;;;;23.42;22.41;101473.81;1519094;92;21080;-83
2022/03/25 07:41:45;;;;;;;17.77;8.50;;;;;;;23.93;22.34;101478.18;1517964;93;21094;-83
2022/03/25 07:44:24;;;;;;;15.28;7.33;;;;;;;24.58;21.61;101467.28;1517479;92;21524;-83
2022/03/25 07:46:54;;;;;;;15.43;7.45;;;;;;;25.33;21.37;101466.61;1513726;92;21673;-83
2022/03/25 07:49:38;;;;;;;15.15;7.60;;;;;;;25.27;20.40;101466.58;1503833;92;22154;-83
2022/03/25 07:52:19;;;;;;;12.00;6.50;;;;;;;24.78;20.60;101473.17;1512959;93;21111;-84
2022/03/25 13:34:45;;;;;;;11.75;5.08;;;;;;;13.97;23.69;101380.64;1747756;80;21086;-83
2022/03/25 13:37:23;;;;;;;12.37;4.60;;;;;;;13.74;23.73;101378.63;1748053;80;21197;-83
2022/03/25 13:39:50;;;;;;;13.38;5.25;;;;;;;13.69;23.84;101377.24;1744630;80;20994;-82
2022/03/25 13:42:17;;;;;;;10.60;4.92;;;;;;;13.75;23.67;101372.13;1749261;80;21479;-83
2022/03/25 13:44:45;;;;;;;12.05;5.22;;;;;;;13.73;24.16;101375.63;1746683;80;21180;-83
2022/03/25 13:47:11;;;;;;;10.35;4.80;;;;;;;13.80;23.88;101373.52;1749018;80;21057;-82
2022/03/25 13:49:38;;;;;;;10.78;4.58;;;;;;;13.77;23.63;101379.47;1752338;80;22196;-83
2022/03/25 13:52:09;;;;;;;13.13;5.03;;;;;;;13.67;23.85;101382.64;1750585;81;21019;-83
2022/03/25 13:54:36;;;;;;;11.22;4.30;;;;;;;13.61;23.79;101377.18;1748688;80;21599;-83
2022/03/25 13:57:04;;;;;;;12.63;5.03;;;;;;;13.51;23.57;101382.54;1752437;80;21078;-83
2022/03/25 13:59:40;;;;;;;11.22;4.90;;;;;;;13.48;23.22;101380.35;1757646;80;20943;-84
2022/03/25 14:04:53;;;;;;;8.73;4.55;;;;;;;13.43;23.51;101379.50;1570163;89;21620;-82
2022/03/25 14:07:22;;;;;;;13.53;5.45;;;;;;;13.40;23.69;101378.12;1575322;89;21094;-82
2022/03/25 14:09:57;;;;;;;11.28;4.72;;;;;;;13.38;24.05;101379.75;1574799;88;21260;-83
2022/03/25 14:12:27;;;;;;;12.88;4.58;;;;;;;13.36;24.06;101386.49;1577506;89;21094;-83
2022/03/25 14:15:01;;;;;;;9.90;4.85;;;;;;;13.31;24.04;101388.61;1583345;88;21241;-82
2022/03/25 14:17:29;;;;;;;;;;;;;;;13.30;24.21;101383.47;1582565;88;21265;-83
2022/03/25 14:20:08;;;;;;;14.18;4.70;;;;;;;13.28;24.13;101386.42;1558989;89;20204;-83
2022/03/25 14:22:38;;;;;;;24.50;5.72;;;;;;;13.27;24.04;101388.86;1554093;91;21731;-83
2022/03/25 14:25:07;;;;;;;13.65;4.87;;;;;;;13.26;24.17;101380.98;1552317;91;21139;-82
2022/03/25 14:27:34;;;;;;;13.00;4.62;;;;;;;13.30;24.12;101391.59;1545837;91;21859;-83
2022/03/25 14:30:01;;;;;;;12.58;4.45;;;;;;;13.31;24.31;101391.86;1549953;91;21137;-83
2022/03/25 14:32:28;;;;;;;12.30;5.35;;;;;;;13.36;24.24;101393.27;1541941;90;21546;-83
2022/03/25 14:34:58;;;;;;;15.70;5.28;;;;;;;13.39;24.10;101394.09;1548449;91;21039;-83
2022/03/25 14:37:26;;;;;;;11.97;4.75;;;;;;;13.35;24.40;101391.61;1546558;91;22285;-83
2022/03/25 14:39:55;;;;;;;8.53;4.47;;;;;;;13.29;24.41;101397.52;1551164;91;21974;-82
2022/03/25 14:42:23;;;;;;;9.93;4.45;;;;;;;13.17;24.31;101396.84;1554298;91;21415;-83
2022/03/25 14:44:50;;;;;;;22.27;5.90;;;;;;;13.04;24.45;101388.63;1549502;90;21637;-83
2022/03/25 14:47:18;;;;;;;26.45;9.28;;;;;;;13.02;24.85;101398.06;1551446;91;21107;-83
2022/03/25 14:49:45;;;;;;;18.40;7.60;;;;;;;13.02;24.85;101393.46;1541492;91;21539;-83
2022/03/25 14:52:12;;;;;;;18.02;5.72;;;;;;;13.03;24.80;101396.47;1553080;91;21232;-83
2022/03/25 14:54:43;;;;;;;10.98;5.03;;;;;;;13.06;24.84;101401.88;1567743;89;21158;-83
2022/03/25 14:57:11;;;;;;;12.82;4.85;;;;;;;13.01;25.03;101397.25;1573357;89;21193;-83
2022/03/25 14:59:41;;;;;;;11.73;4.62;;;;;;;13.00;25.08;101400.20;1619572;86;21524;-83
2022/03/25 15:02:10;;;;;;;9.43;3.95;;;;;;;12.96;24.90;101403.41;1605615;88;21185;-83
2022/03/25 15:04:39;;;;;;;10.93;4.53;;;;;;;12.88;24.82;101403.05;1608060;87;21735;-83
2022/03/25 15:07:08;;;;;;;16.32;5.05;;;;;;;12.78;24.52;101405.12;1614147;87;21109;-83
2022/03/25 15:09:37;;;;;;;11.88;4.78;;;;;;;12.73;24.70;101405.06;1606949;88;21156;-84
2022/03/25 15:12:09;;;;;;;17.65;6.53;;;;;;;12.70;24.72;101410.45;1608800;88;21074;-84
2022/03/25 15:14:39;;;;;;;25.70;8.13;;;;;;;12.68;24.75;101409.91;1603727;88;21656;-83
2022/03/25 15:17:08;;;;;;;28.95;8.13;;;;;;;12.63;24.96;101414.44;1608721;88;21184;-84
2022/03/25 15:19:36;;;;;;;19.87;7.58;;;;;;;12.59;24.70;101413.29;1628559;86;21192;-84
2022/03/25 15:22:05;;;;;;;26.42;7.10;;;;;;;12.54;24.88;101410.55;1648149;85;21078;-84
2022/03/25 15:24:32;;;;;;;21.25;7.12;;;;;;;12.46;24.69;101410.45;1648198;86;21048;-84
2022/03/25 15:26:59;;;;;;;17.30;7.67;;;;;;;12.37;24.88;101410.06;1653093;85;21030;-84
2022/03/25 15:34:58;;;;;;;31.15;9.03;;;;;;;11.99;25.35;101414.97;1672173;84;21116;-84
2022/03/25 15:37:26;;;;;;;49.50;11.28;;;;;;;11.82;25.41;101410.91;1663029;84;21091;-84
2022/03/25 15:39:59;;;;;;;36.80;10.32;;;;;;;11.74;25.92;101412.70;1709398;80;21050;-84
2022/03/25 15:42:27;;;;;;;35.95;10.13;;;;;;;11.65;25.89;101412.80;1718941;80;21049;-84
2022/03/25 15:44:53;;;;;;;43.75;10.25;;;;;;;11.54;26.04;101419.41;1751584;80;20939;-84
2022/03/25 15:47:20;;;;;;;42.33;10.15;;;;;;;11.43;26.04;101425.70;1752186;80;20951;-84
2022/03/25 15:49:47;;;;;;;45.12;9.58;;;;;;;11.22;26.60;101421.03;1744256;79;21116;-85
2022/03/25 15:52:14;;;;;;;42.45;9.43;;;;;;;10.98;27.47;101423.04;1730382;80;21078;-84
2022/03/25 15:54:43;;;;;;;42.10;9.63;;;;;;;10.73;27.64;101430.92;1751039;80;21495;-84
2022/03/25 15:57:10;;;;;;;50.25;9.55;;;;;;;10.46;27.85;101426.08;1728389;80;21108;-85
2022/03/25 15:59:37;;;;;;;28.10;9.43;;;;;;;10.16;29.02;101420.84;1754596;80;21693;-84
2022/03/25 16:02:04;;;;;;;37.17;9.08;;;;;;;9.91;28.09;101427.00;1763620;79;21164;-84
2022/03/25 16:04:31;;;;;;;33.18;8.90;;;;;;;9.70;28.62;101425.19;1758629;79;21022;-85
2022/03/25 16:06:59;;;;;;;26.27;8.80;;;;;;;9.49;29.27;101425.77;1743319;80;21583;-84
2022/03/25 16:09:31;;;;;;;28.30;8.45;;;;;;;9.21;29.34;101432.62;1726486;80;21074;-85
2022/03/25 16:12:03;;;;;;;25.70;8.45;;;;;;;9.04;29.07;101433.78;1756223;79;21101;-86
2022/03/25 16:14:32;;;;;;;29.98;9.05;;;;;;;8.80;29.80;101435.56;1725730;81;21073;-85
2022/03/25 16:17:06;;;;;;;26.75;8.83;;;;;;;8.56;29.71;101437.33;1745315;80;21480;-85
2022/03/25 16:19:32;;;;;;;;;;;;;;;8.33;30.10;101442.00;1726664;80;21180;-85
2022/03/25 16:21:59;;;;;;;30.12;9.45;;;;;;;8.03;31.59;101432.52;1748111;80;20137;-86
2022/03/25 16:24:26;;;;;;;27.27;8.83;;;;;;;7.81;31.50;101439.33;1746507;80;21557;-85
2022/03/25 16:26:53;;;;;;;31.17;10.85;;;;;;;7.59;32.02;101434.36;1747283;80;20999;-85
2022/03/25 16:29:20;;;;;;;28.70;11.05;;;;;;;7.43;32.03;101449.12;1754108;80;21558;-85
2022/03/25 16:31:48;;;;;;;34.55;10.70;;;;;;;7.26;32.18;101450.19;1748459;80;21182;-85
2022/03/25 16:34:15;;;;;;;39.35;12.60;;;;;;;7.08;32.91;101450.59;1713945;82;20990;-85
2022/03/25 16:36:42;;;;;;;38.85;11.88;;;;;;;6.88;33.15;101458.73;1686492;82;21031;-85
2022/03/25 16:39:09;;;;;;;34.63;12.03;;;;;;;6.71;33.40;101457.91;1706355;82;21022;-85
2022/03/25 16:41:36;;;;;;;37.75;13.50;;;;;;;6.53;33.86;101459.08;1712299;82;21094;-85
2022/03/25 16:44:04;;;;;;;48.02;15.30;;;;;;;6.38;34.21;101458.00;1710692;82;21394;-85
2022/03/25 16:46:33;;;;;;;50.10;15.38;;;;;;;6.21;34.66;101462.19;1681696;83;21075;-85
2022/03/25 16:49:00;;;;;;;47.33;16.45;;;;;;;6.03;34.67;101464.14;1686956;83;21026;-84
2022/03/25 16:51:29;;;;;;;52.65;17.57;;;;;;;5.87;35.34;101466.72;1705929;82;21230;-85
2022/03/25 16:53:57;;;;;;;62.03;17.42;;;;;;;5.73;35.79;101465.07;1707456;82;21055;-85
2022/03/25 16:56:24;;;;;;;58.75;19.87;;;;;;;5.58;36.16;101466.61;1711404;82;21127;-86
2022/03/25 16:58:51;;;;;;;58.63;19.77;;;;;;;5.44;36.09;101470.63;1707098;82;21405;-85
2022/03/25 17:01:19;;;;;;;64.42;19.77;;;;;;;5.31;36.17;101479.13;1684726;83;21062;-84
2022/03/25 17:03:49;;;;;;;65.05;19.98;;;;;;;5.21;36.97;101481.69;1689055;83;21185;-85
2022/03/25 17:06:22;;;;;;;57.88;20.23;;;;;;;5.08;37.23;101482.16;1722551;80;21476;-85
2022/03/25 17:08:51;;;;;;;71.82;19.87;;;;;;;4.96;37.53;101481.91;1693466;83;21070;-85
2022/03/25 17:11:20;;;;;;;69.53;21.95;;;;;;;4.83;37.90;101485.89;1682791;83;21057;-85
2022/03/25 17:13:47;;;;;;;71.55;22.20;;;;;;;4.70;38.21;101486.64;1682433;83;21121;-85
2022/03/25 17:16:14;;;;;;;68.87;22.95;;;;;;;4.58;38.38;101486.38;1608080;88;21756;-85
2022/03/25 17:18:41;;;;;;;67.72;21.73;;;;;;;4.51;38.53;101488.20;1605882;87;21074;-85
2022/03/25 17:21:09;;;;;;;77.75;23.42;;;;;;;4.44;39.88;101490.84;1609177;87;21295;-85
2022/03/25 17:23:39;;;;;;;89.95;26.37;;;;;;;4.35;39.90;101491.17;1605808;87;21871;-85
2022/03/25 17:26:09;;;;;;;81.05;25.00;;;;;;;4.25;40.16;101487.02;1600987;87;21150;-84
2022/03/25 17:28:40;;;;;;;70.00;23.47;;;;;;;4.18;40.59;101492.02;1600731;88;21136;-85
2022/03/25 17:31:08;;;;;;;83.72;26.00;;;;;;;4.06;40.82;101497.89;1601730;87;21274;-85
2022/03/25 17:33:39;;;;;;;75.85;24.00;;;;;;;3.97;41.13;101498.20;1588515;88;21916;-85
2022/03/25 17:36:10;;;;;;;77.53;24.80;;;;;;;3.86;41.80;101495.06;1591213;88;21264;-85
2022/03/25 17:38:39;;;;;;;76.15;24.63;;;;;;;3.77;43.57;101497.55;1617045;87;21025;-85
2022/03/25 17:41:09;;;;;;;79.22;24.87;;;;;;;3.64;43.46;101498.77;1632803;83;21070;-85
2022/03/25 17:43:36;;;;;;;90.10;25.52;;;;;;;3.56;44.78;101503.73;1677173;83;21510;-85
2022/03/25 17:46:03;;;;;;;80.22;23.85;;;;;;;3.51;45.34;101502.14;1700176;82;21131;-85
2022/03/25 17:48:33;;;;;;;71.37;23.35;;;;;;;3.45;46.85;101504.75;1689780;82;21215;-87
2022/03/25 17:51:00;;;;;;;72.90;23.55;;;;;;;3.37;47.54;101500.35;1697258;83;21493;-85
2022/03/25 17:53:30;;;;;;;72.92;21.77;;;;;;;3.32;49.34;101504.09;1688679;82;21022;-85
2022/03/25 17:56:00;;;;;;;75.10;24.12;;;;;;;3.27;49.62;101500.67;1664798;83;21095;-84
2022/03/25 17:58:31;;;;;;;82.85;23.55;;;;;;;3.19;50.16;101504.78;1702150;83;21174;-84
2022/03/25 18:01:01;;;;;;;73.95;24.25;;;;;;;3.10;51.16;101505.91;1701732;82;21155;-84
2022/03/25 18:03:31;;;;;;;75.03;23.62;;;;;;;3.02;52.49;101503.36;1700728;83;21105;-84
2022/03/25 18:05:59;;;;;;;79.37;23.83;;;;;;;2.94;53.06;101513.59;1724411;80;21015;-85
2022/03/25 18:08:30;;;;;;;86.28;25.30;;;;;;;2.85;54.69;101509.39;1748536;80;21022;-84
2022/03/25 18:10:57;;;;;;;77.67;25.30;;;;;;;2.78;56.00;101508.50;1747708;80;21374;-84
2022/03/25 18:13:23;;;;;;;90.67;26.87;;;;;;;2.67;56.49;101507.95;1745066;80;20971;-84
2022/03/25 18:15:53;;;;;;;82.90;27.35;;;;;;;2.61;57.83;101506.53;1750924;80;21073;-84
2022/03/25 18:18:22;;;;;;;90.55;26.93;;;;;;;2.55;59.28;101509.94;1750093;80;21198;-85
2022/03/25 18:20:55;;;;;;;94.80;26.52;;;;;;;2.51;59.53;101506.83;1747322;80;21010;-84
2022/03/25 18:23:19;;;;;;;96.35;26.77;;;;;;;2.45;62.01;101509.71;1744231;80;21583;-84
2022/03/25 18:25:48;;;;;;;87.42;26.42;;;;;;;2.38;62.60;101508.81;1710968;80;21070;-84
2022/03/25 18:28:18;;;;;;;79.92;25.12;;;;;;;2.31;61.42;101513.19;1748015;80;21038;-85
2022/03/25 18:30:47;;;;;;;80.20;24.12;;;;;;;2.21;62.20;101508.66;1729780;80;21016;-84
2022/03/25 18:33:17;;;;;;;87.92;25.72;;;;;;;2.12;62.00;101511.89;1747403;80;21062;-84
2022/03/25 18:35:48;;;;;;;75.52;26.17;;;;;;;2.08;61.42;101512.42;1714181;81;21083;-84
2022/03/25 18:38:14;;;;;;;84.72;26.10;;;;;;;1.99;62.09;101515.16;1748713;80;21516;-84
2022/03/25 18:40:41;;;;;;;91.85;29.10;;;;;;;1.92;61.84;101512.09;1725892;81;21033;-84
2022/03/25 18:43:11;;;;;;;92.25;27.67;;;;;;;1.88;61.30;101516.09;1750417;80;21106;-84
2022/03/25 18:45:40;;;;;;;79.95;26.15;;;;;;;1.80;61.90;101512.52;1752320;80;21082;-84
2022/03/25 18:48:09;;;;;;;85.57;26.30;;;;;;;1.70;61.59;101517.73;1747830;80;21156;-84
2022/03/25 18:50:38;;;;;;;91.08;26.17;;;;;;;1.63;62.06;101513.64;1751821;80;21127;-84
2022/03/25 18:53:08;;;;;;;79.72;24.72;;;;;;;1.55;61.49;101519.83;1730775;80;21070;-84
2022/03/25 18:55:35;;;;;;;84.55;25.50;;;;;;;1.48;61.65;101526.05;1750088;80;21482;-84
2022/03/25 18:58:04;;;;;;;85.10;22.77;;;;;;;1.42;61.74;101524.92;1746527;80;21094;-84
2022/03/25 19:00:34;;;;;;;83.60;24.70;;;;;;;1.35;61.77;101523.48;1747385;80;21289;-84
2022/03/25 19:03:02;;;;;;;89.50;23.70;;;;;;;1.31;63.37;101530.63;1749749;80;21160;-84
2022/03/25 19:05:31;;;;;;;87.02;24.70;;;;;;;1.24;63.04;101528.37;1749863;80;21066;-84
2022/03/25 19:08:04;;;;;;;85.20;23.83;;;;;;;1.18;61.94;101529.89;1713983;80;21555;-84
2022/03/25 19:10:30;;;;;;;84.00;26.48;;;;;;;1.13;60.50;101526.42;1742219;80;21558;-84
2022/03/25 19:12:59;;;;;;;85.90;25.10;;;;;;;1.07;59.89;101530.28;1746352;80;21117;-84
2022/03/25 19:15:26;;;;;;;106.75;26.62;;;;;;;1.01;60.43;101529.65;1750532;80;21132;-84
2022/03/25 19:17:54;;;;;;;97.78;28.42;;;;;;;0.95;68.53;101535.66;1748948;80;21097;-84
2022/03/25 19:20:21;;;;;;;80.10;27.05;;;;;;;0.87;63.86;101529.88;1752974;80;21084;-84
2022/03/25 19:22:53;;;;;;;88.12;26.17;;;;;;;0.75;63.90;101524.63;1745039;80;20991;-84
2022/03/25 19:25:19;;;;;;;97.20;27.98;;;;;;;0.67;67.81;101530.77;1746600;80;20999;-84
2022/03/25 19:27:46;;;;;;;76.00;25.45;;;;;;;0.66;70.00;101529.95;1742952;80;21046;-84
2022/03/25 19:30:16;;;;;;;80.50;26.40;;;;;;;0.63;70.78;101522.84;1748988;80;21177;-84
2022/03/25 19:32:44;;;;;;;84.07;26.50;;;;;;;0.60;68.08;101518.70;1749870;80;21855;-84
2022/03/25 19:35:16;;;;;;;87.78;25.90;;;;;;;0.58;70.79;101527.32;1746612;80;21602;-84
2022/03/25 19:37:44;;;;;;;78.42;25.85;;;;;;;0.59;73.42;101522.84;1749327;80;21118;-84
2022/03/25 19:40:15;;;;;;;93.62;27.45;;;;;;;0.56;72.79;101523.18;1746690;80;20978;-84
2022/03/25 19:42:45;;;;;;;79.62;25.57;;;;;;;0.50;73.96;101529.17;1702894;80;21085;-84
2022/03/25 19:45:15;;;;;;;80.97;25.32;;;;;;;0.47;75.65;101525.53;1750435;80;21085;-84
2022/03/25 19:47:43;;;;;;;86.60;26.75;;;;;;;0.45;78.40;101527.87;1752565;80;21203;-84
2022/03/25 19:50:14;;;;;;;82.95;24.00;;;;;;;0.42;83.42;101524.23;1748266;80;21216;-84
2022/03/25 19:52:48;;;;;;;86.00;25.75;;;;;;;0.40;81.31;101532.02;1746258;80;20939;-84
2022/03/25 19:55:17;;;;;;;92.67;26.30;;;;;;;0.35;84.86;101530.37;1748191;80;21007;-84
2022/03/25 19:57:48;;;;;;;92.75;27.73;;;;;;;0.32;84.54;101530.70;1747353;80;21090;-84
2022/03/25 20:00:17;;;;;;;90.47;27.48;;;;;;;0.29;88.26;101529.22;1750165;79;21555;-84
2022/03/25 20:02:44;;;;;;;98.97;32.67;;;;;;;0.27;89.13;101525.11;1751479;80;21277;-84
2022/03/25 20:05:11;;;;;;;100.90;31.02;;;;;;;0.24;88.06;101526.27;1745931;81;20923;-85
2022/03/25 20:07:39;;;;;;;101.30;33.53;;;;;;;0.21;88.01;101534.56;1723351;81;21073;-84
2022/03/25 20:10:07;;;;;;;99.75;31.97;;;;;;;0.17;92.49;101531.89;1750047;80;21113;-84
2022/03/25 20:12:33;;;;;;;105.03;28.92;;;;;;;0.10;92.01;101527.77;1748584;80;21018;-84
2022/03/25 20:15:01;;;;;;;105.43;30.50;;;;;;;0.06;93.22;101530.91;1746711;80;21711;-84
2022/03/25 20:17:30;;;;;;;104.27;33.42;;;;;;;-0.01;93.52;101532.09;1748580;80;21118;-84
2022/03/25 20:19:58;;;;;;;107.17;30.23;;;;;;;-0.06;95.12;101532.61;1751485;80;21101;-84
2022/03/25 20:22:25;;;;;;;97.80;31.20;;;;;;;-0.12;97.47;101530.62;1751152;80;21055;-84
2022/03/25 20:24:52;;;;;;;111.88;34.35;;;;;;;-0.16;97.64;101537.23;1752316;80;20939;-84
2022/03/25 20:27:21;;;;;;;120.62;35.75;;;;;;;-0.19;97.05;101530.11;1753768;80;21096;-84
2022/03/25 20:29:50;;;;;;;108.55;35.05;;;;;;;-0.24;97.67;101531.45;1748035;80;21164;-84
2022/03/25 20:32:19;;;;;;;118.28;37.35;;;;;;;-0.28;98.11;101529.28;1748719;80;21073;-84
2022/03/25 20:34:47;;;;;;;100.62;34.65;;;;;;;-0.32;100.00;101537.24;1748526;80;21627;-84
2022/03/25 20:37:14;;;;;;;127.55;40.23;;;;;;;-0.34;100.00;101536.06;1747671;80;21128;-84
2022/03/25 20:39:42;;;;;;;123.13;38.15;;;;;;;-0.37;100.00;101535.58;1749151;80;21835;-84
2022/03/25 20:42:15;;;;;;;119.13;38.33;;;;;;;-0.42;100.00;101545.82;1746837;80;21074;-84
2022/03/25 20:44:43;;;;;;;121.35;36.03;;;;;;;-0.46;100.00;101548.80;1730322;81;21052;-84
2022/03/25 20:47:10;;;;;;;113.85;36.10;;;;;;;-0.49;100.00;101538.53;1724307;81;21145;-84
2022/03/25 20:49:38;;;;;;;132.82;41.85;;;;;;;-0.52;100.00;101542.84;1731406;80;21133;-84
2022/03/25 20:52:09;;;;;;;124.15;38.28;;;;;;;-0.51;100.00;101540.52;1719508;81;21601;-84
2022/03/25 20:54:37;;;;;;;141.32;41.20;;;;;;;-0.55;100.00;101539.19;1715289;81;21069;-84
2022/03/25 20:57:06;;;;;;;122.47;37.88;;;;;;;-0.53;100.00;101537.69;1660720;83;21072;-84
2022/03/25 20:59:33;;;;;;;134.47;40.45;;;;;;;-0.49;100.00;101539.04;1669599;84;21067;-84
2022/03/25 21:02:01;;;;;;;123.95;38.83;;;;;;;-0.47;100.00;101545.83;1668832;83;21809;-84
2022/03/25 21:04:28;;;;;;;112.50;38.45;;;;;;;-0.50;100.00;101536.04;1661419;83;21143;-84
2022/03/25 21:06:58;;;;;;;124.67;39.98;;;;;;;-0.53;100.00;101539.02;1669931;83;21125;-84
2022/03/25 21:09:24;;;;;;;114.88;37.93;;;;;;;-0.55;100.00;101536.55;1658750;83;21172;-84
2022/03/25 21:11:51;;;;;;;114.42;38.38;;;;;;;-0.53;100.00;101534.57;1659029;83;21109;-84
2022/03/25 21:14:18;;;;;;;119.70;39.75;;;;;;;-0.57;100.00;101537.20;1668639;84;21596;-84
2022/03/25 21:16:45;;;;;;;113.85;38.60;;;;;;;-0.61;100.00;101533.23;1667609;84;21372;-84
2022/03/25 21:19:12;;;;;;;114.80;39.25;;;;;;;-0.65;100.00;101533.20;1662867;83;21028;-84
2022/03/25 21:21:38;;;;;;;122.67;37.40;;;;;;;-0.71;100.00;101534.71;1658469;83;21102;-84
2022/03/25 21:24:06;;;;;;;117.67;36.75;;;;;;;-0.74;100.00;101532.36;1665607;84;21024;-84
2022/03/25 21:26:33;;;;;;;101.10;34.25;;;;;;;-0.79;100.00;101525.92;1675833;83;21076;-84
2022/03/25 21:29:00;;;;;;;103.67;34.43;;;;;;;-0.86;100.00;101525.72;1653525;83;21130;-84
2022/03/25 21:31:27;;;;;;;125.10;37.15;;;;;;;-0.90;100.00;101525.72;1668621;84;21466;-84
2022/03/25 21:33:53;;;;;;;116.73;36.23;;;;;;;-0.96;100.00;101531.16;1667275;83;21166;-84
2022/03/25 21:36:20;;;;;;;120.72;35.15;;;;;;;-1.02;100.00;101529.16;1655295;83;21748;-84
2022/03/25 21:38:49;;;;;;;111.60;34.65;;;;;;;-1.03;100.00;101526.66;1673161;83;21122;-84
2022/03/25 21:41:16;;;;;;;127.65;39.50;;;;;;;-1.05;100.00;101528.16;1678086;82;21127;-84
2022/03/25 21:43:43;;;;;;;122.42;37.42;;;;;;;-1.10;100.00;101526.48;1685315;82;21085;-84
2022/03/25 21:46:09;;;;;;;116.60;38.88;;;;;;;-1.20;100.00;101530.59;1681642;83;20968;-84
2022/03/25 21:48:36;;;;;;;130.12;39.60;;;;;;;-1.22;100.00;101519.83;1672728;83;21093;-84
2022/03/25 21:51:03;;;;;;;119.67;38.42;;;;;;;-1.22;100.00;101511.89;1686038;82;21089;-84
2022/03/25 21:53:30;;;;;;;121.95;37.13;;;;;;;-1.23;100.00;101516.36;1706458;80;21167;-83
2022/03/25 21:55:57;;;;;;;117.08;38.05;;;;;;;-1.25;100.00;101513.54;1749832;80;21073;-84
2022/03/25 21:58:23;;;;;;;106.45;36.05;;;;;;;-1.27;100.00;101515.50;1743101;80;21002;-84
2022/03/25 22:00:50;;;;;;;108.75;34.35;;;;;;;-1.27;100.00;101524.76;1743548;80;21012;-84
2022/03/25 22:03:17;;;;;;;105.52;34.88;;;;;;;-1.30;100.00;101522.44;1745408;80;21149;-84
2022/03/25 22:05:43;;;;;;;102.15;34.98;;;;;;;-1.34;100.00;101522.43;1745976;80;21429;-84
2022/03/25 22:08:10;;;;;;;107.83;35.80;;;;;;;-1.38;100.00;101521.42;1752295;80;21105;-84
2022/03/25 22:10:37;;;;;;;105.43;34.38;;;;;;;-1.40;100.00;101523.89;1727201;80;21621;-84
2022/03/25 22:13:06;;;;;;;108.12;35.95;;;;;;;-1.43;100.00;101516.27;1750975;80;21029;-84
2022/03/25 22:15:33;;;;;;;111.77;37.67;;;;;;;-1.49;100.00;101518.23;1750802;80;20940;-84
2022/03/25 22:18:00;;;;;;;108.12;36.00;;;;;;;-1.52;100.00;101516.73;1748663;80;21101;-84
2022/03/25 22:20:28;;;;;;;93.07;34.33;;;;;;;-1.53;100.00;101517.72;1747430;80;22261;-84
2022/03/25 22:22:55;;;;;;;102.05;33.88;;;;;;;-1.55;100.00;101516.22;1745454;80;21578;-84
2022/03/25 22:25:22;;;;;;;109.80;33.25;;;;;;;-1.63;100.00;101516.99;1753765;80;21566;-84
2022/03/25 22:27:48;;;;;;;86.95;32.17;;;;;;;-1.70;100.00;101519.94;1749821;80;21038;-83
2022/03/25 22:30:14;;;;;;;83.33;31.42;;;;;;;-1.72;100.00;101520.58;1749453;80;21073;-84
2022/03/25 22:32:41;;;;;;;91.35;31.65;;;;;;;-1.70;100.00;101522.58;1748476;80;21216;-83
2022/03/25 22:35:08;;;;;;;83.97;31.97;;;;;;;-1.73;100.00;101521.58;1746507;80;21101;-84
2022/03/25 22:37:35;;;;;;;89.65;32.10;;;;;;;-1.76;100.00;101517.42;1749547;80;20954;-84
2022/03/25 22:40:04;;;;;;;79.75;30.10;;;;;;;-1.77;100.00;101514.42;1750471;80;20947;-84
2022/03/25 22:42:31;;;;;;;93.87;30.27;;;;;;;-1.80;100.00;101520.52;1746369;80;21045;-84
2022/03/25 22:44:57;;;;;;;84.72;29.55;;;;;;;-1.85;100.00;101511.76;1743257;80;21081;-84
2022/03/25 22:47:25;;;;;;;82.02;28.98;;;;;;;-1.89;100.00;101515.67;1749053;80;21176;-84
2022/03/25 22:49:52;;;;;;;78.50;28.35;;;;;;;-1.96;100.00;101524.72;1747580;80;21116;-84
2022/03/25 22:52:18;;;;;;;77.67;29.42;;;;;;;-1.98;100.00;101520.57;1746814;80;21058;-84
2022/03/25 22:54:44;;;;;;;78.62;29.18;;;;;;;-1.99;100.00;101520.25;1746699;80;21046;-84
2022/03/25 22:57:10;;;;;;;83.05;29.77;;;;;;;-1.99;100.00;101517.11;1722550;80;21041;-84
2022/03/25 22:59:37;;;;;;;80.83;27.50;;;;;;;-2.00;100.00;101510.17;1748717;80;21655;-85
2022/03/25 23:02:05;;;;;;;72.70;27.37;;;;;;;-2.01;100.00;101516.92;1747840;80;21587;-84
2022/03/25 23:04:32;;;;;;;70.83;27.00;;;;;;;-2.05;100.00;101508.48;1748535;80;21090;-84
2022/03/25 23:06:58;;;;;;;71.00;26.52;;;;;;;-2.06;100.00;101510.30;1746568;81;21104;-85
2022/03/25 23:09:24;;;;;;;89.30;31.23;;;;;;;-2.05;100.00;101536.22;1749900;80;21010;-84
2022/03/25 23:11:50;;;;;;;90.40;30.95;;;;;;;-2.09;100.00;101530.88;1745662;80;21030;-84
2022/03/25 23:14:18;;;;;;;93.37;32.20;;;;;;;-2.03;100.00;101522.84;1749106;80;20983;-85
2022/03/25 23:16:44;;;;;;;88.60;32.48;;;;;;;-2.03;100.00;101524.98;1749212;80;21496;-85
2022/03/25 23:19:11;;;;;;;91.42;31.17;;;;;;;-1.99;100.00;101518.42;1747165;80;21538;-85
2022/03/25 23:21:37;;;;;;;90.05;32.13;;;;;;;-1.97;100.00;101524.86;1750478;80;20943;-84
2022/03/25 23:24:05;;;;;;;80.38;31.10;;;;;;;-2.00;100.00;101522.53;1753979;80;21149;-87
2022/03/25 23:26:31;;;;;;;83.33;30.08;;;;;;;-1.97;100.00;101515.62;1745072;80;21179;-85
2022/03/25 23:28:58;;;;;;;93.33;31.30;;;;;;;-1.98;100.00;101512.65;1751574;80;21085;-85
2022/03/25 23:31:25;;;;;;;87.65;31.73;;;;;;;-2.00;100.00;101511.50;1744756;80;21019;-83
2022/03/25 23:33:52;;;;;;;89.05;31.60;;;;;;;-2.01;100.00;101512.46;1746722;80;21637;-84
2022/03/25 23:36:19;;;;;;;81.30;29.27;;;;;;;-2.07;100.00;101503.84;1747768;80;21196;-85
2022/03/25 23:38:45;;;;;;;76.75;30.40;;;;;;;-2.10;100.00;101505.47;1749349;80;21090;-84
2022/03/25 23:41:12;;;;;;;81.35;29.50;;;;;;;-2.12;100.00;101501.68;1744469;80;21074;-84
2022/03/25 23:43:38;;;;;;;96.12;31.85;;;;;;;-2.16;100.00;101502.13;1754807;80;21219;-84
2022/03/25 23:46:05;;;;;;;94.03;31.75;;;;;;;-2.19;100.00;101497.98;1750195;80;21030;-84
2022/03/25 23:48:32;;;;;;;90.28;32.05;;;;;;;-2.23;100.00;101499.28;1746764;80;21006;-84
2022/03/25 23:50:59;;;;;;;85.07;31.05;;;;;;;-2.26;100.00;101491.67;1749061;80;21099;-84
2022/03/25 23:53:26;;;;;;;80.07;30.85;;;;;;;-2.30;100.00;101493.77;1751429;80;21003;-85
2022/03/25 23:55:54;;;;;;;81.92;31.37;;;;;;;-2.32;100.00;101489.15;1750183;80;21659;-85
2022/03/25 23:58:20;;;;;;;87.60;30.48;;;;;;;-2.31;100.00;101489.48;1750786;80;21098;-84
